createdAt,value
2018-01-22T00:00:32.837Z,711.14
2018-01-22T00:01:33.304Z,711.42
2018-01-22T00:02:33.768Z,711.42
2018-01-22T00:04:34.696Z,710.82
2018-01-22T00:06:47.463Z,711.05
2018-01-22T00:07:36.084Z,711.12
2018-01-22T00:08:36.553Z,710.80
2018-01-22T00:09:37.017Z,711.35
2018-01-22T00:10:37.482Z,711.00
2018-01-22T00:12:38.411Z,710.63
2018-01-22T00:13:38.874Z,710.84
2018-01-22T00:14:39.337Z,711.04
2018-01-22T00:15:39.804Z,711.16
2018-01-22T00:16:40.270Z,710.83
2018-01-22T00:18:41.195Z,710.86
2018-01-22T00:19:41.663Z,710.53
2018-01-22T00:20:42.126Z,710.51
2018-01-22T00:22:43.056Z,710.82
2018-01-22T00:23:43.518Z,710.60
2018-01-22T00:24:43.983Z,710.65
2018-01-22T00:25:44.445Z,710.96
2018-01-22T00:26:44.913Z,710.36
2018-01-22T00:27:45.376Z,710.89
2018-01-22T00:28:45.842Z,710.96
2018-01-22T00:30:46.772Z,710.65
2018-01-22T00:31:47.235Z,710.60
2018-01-22T00:32:59.486Z,710.99
2018-01-22T00:33:48.171Z,710.83
2018-01-22T00:34:48.630Z,711.09
2018-01-22T00:35:49.092Z,710.89
2018-01-22T00:36:49.553Z,710.83
2018-01-22T00:37:50.025Z,710.86
2018-01-22T00:38:50.488Z,710.84
2018-01-22T00:40:51.416Z,710.85
2018-01-22T00:41:51.882Z,711.06
2018-01-22T00:43:52.806Z,710.83
2018-01-22T00:44:53.275Z,710.78
2018-01-22T00:45:53.739Z,710.44
2018-01-22T00:46:54.203Z,710.86
2018-01-22T00:47:54.705Z,710.60
2018-01-22T00:48:55.134Z,710.77
2018-01-22T00:49:55.597Z,710.37
2018-01-22T00:50:56.063Z,710.33
2018-01-22T00:52:56.994Z,710.78
2018-01-22T00:54:57.916Z,710.50
2018-01-22T00:55:58.384Z,710.44
2018-01-22T00:56:58.850Z,710.77
2018-01-22T00:57:59.315Z,710.96
2018-01-22T00:58:59.777Z,710.82
2018-01-22T01:00:00.244Z,710.90
2018-01-22T01:01:00.709Z,711.10
2018-01-22T01:02:01.178Z,711.00
2018-01-22T01:03:01.639Z,710.94
2018-01-22T01:05:02.568Z,710.95
2018-01-22T01:06:03.029Z,710.84
2018-01-22T01:07:03.501Z,710.61
2018-01-22T01:08:03.962Z,710.40
2018-01-22T01:09:04.429Z,710.80
2018-01-22T01:10:04.892Z,710.77
2018-01-22T01:11:05.355Z,710.86
2018-01-22T01:12:05.820Z,710.36
2018-01-22T01:13:06.287Z,710.73
2018-01-22T01:14:06.752Z,710.97
2018-01-22T01:15:07.217Z,710.79
2018-01-22T01:16:07.680Z,711.02
2018-01-22T01:17:08.140Z,710.79
2018-01-22T01:18:08.613Z,711.20
2018-01-22T01:19:09.074Z,710.97
2018-01-22T01:20:09.540Z,711.00
2018-01-22T01:21:10.005Z,711.01
2018-01-22T01:22:10.471Z,710.85
2018-01-22T01:23:10.939Z,710.82
2018-01-22T01:24:11.393Z,710.95
2018-01-22T01:26:12.328Z,710.83
2018-01-22T01:27:12.794Z,710.75
2018-01-22T01:28:13.253Z,710.94
2018-01-22T01:29:13.723Z,710.78
2018-01-22T01:30:14.190Z,710.91
2018-01-22T01:31:14.652Z,710.81
2018-01-22T01:32:15.118Z,710.76
2018-01-22T01:33:15.581Z,710.81
2018-01-22T01:34:16.046Z,710.67
2018-01-22T01:35:16.508Z,710.78
2018-01-22T01:36:16.975Z,710.61
2018-01-22T01:37:17.441Z,710.74
2018-01-22T01:38:17.906Z,710.50
2018-01-22T01:39:18.371Z,710.68
2018-01-22T01:40:18.837Z,710.36
2018-01-22T01:42:19.765Z,710.75
2018-01-22T01:43:20.231Z,711.01
2018-01-22T01:44:20.694Z,710.61
2018-01-22T01:45:21.159Z,710.57
2018-01-22T01:46:21.619Z,710.65
2018-01-22T01:47:22.090Z,710.78
2018-01-22T01:48:22.553Z,710.77
2018-01-22T01:49:23.019Z,711.05
2018-01-22T01:50:23.483Z,710.79
2018-01-22T01:51:23.948Z,710.96
2018-01-22T01:52:24.413Z,710.82
2018-01-22T01:53:24.874Z,710.78
2018-01-22T01:54:25.343Z,710.76
2018-01-22T01:55:25.812Z,710.77
2018-01-22T01:56:26.273Z,710.61
2018-01-22T01:57:26.732Z,710.78
2018-01-22T01:58:27.203Z,710.69
2018-01-22T01:59:27.668Z,710.84
2018-01-22T02:00:28.132Z,710.71
2018-01-22T02:01:28.597Z,710.33
2018-01-22T02:02:29.062Z,710.63
2018-01-22T02:03:29.529Z,710.70
2018-01-22T02:04:29.989Z,710.33
2018-01-22T02:06:30.974Z,710.53
2018-01-22T02:07:31.388Z,710.50
2018-01-22T02:08:31.849Z,710.72
2018-01-22T02:09:32.317Z,710.64
2018-01-22T02:10:32.782Z,710.46
2018-01-22T02:11:33.249Z,710.49
2018-01-22T02:12:33.712Z,710.16
2018-01-22T02:14:34.642Z,710.30
2018-01-22T02:15:35.104Z,710.53
2018-01-22T02:16:35.574Z,710.50
2018-01-22T02:18:36.503Z,710.23
2018-01-22T02:19:36.969Z,710.58
2018-01-22T02:20:37.436Z,710.65
2018-01-22T02:21:49.585Z,710.50
2018-01-22T02:22:38.363Z,710.59
2018-01-22T02:23:38.829Z,710.72
2018-01-22T02:24:39.293Z,710.34
2018-01-22T02:25:39.759Z,710.17
2018-01-22T02:26:40.221Z,709.73
2018-01-22T02:27:40.690Z,709.93
2018-01-22T02:28:41.156Z,710.19
2018-01-22T02:29:41.621Z,710.05
2018-01-22T02:31:42.557Z,710.43
2018-01-22T02:32:43.016Z,710.63
2018-01-22T02:33:43.476Z,710.39
2018-01-22T02:34:43.946Z,710.19
2018-01-22T02:35:44.414Z,710.67
2018-01-22T02:36:44.876Z,710.40
2018-01-22T02:37:45.336Z,710.07
2018-01-22T02:38:45.808Z,710.31
2018-01-22T02:39:46.273Z,710.03
2018-01-22T02:40:46.738Z,710.24
2018-01-22T02:41:47.206Z,710.44
2018-01-22T02:42:47.668Z,710.62
2018-01-22T02:43:48.133Z,710.44
2018-01-22T02:44:48.593Z,710.50
2018-01-22T02:45:49.065Z,710.50
2018-01-22T02:48:50.459Z,710.36
2018-01-22T02:49:50.928Z,710.39
2018-01-22T02:50:51.392Z,710.64
2018-01-22T02:51:51.857Z,710.30
2018-01-22T02:52:52.323Z,710.30
2018-01-22T02:53:52.786Z,710.44
2018-01-22T02:54:53.253Z,710.13
2018-01-22T02:55:53.717Z,710.34
2018-01-22T02:57:05.611Z,710.50
2018-01-22T02:57:54.645Z,710.26
2018-01-22T02:58:55.109Z,710.27
2018-01-22T02:59:55.577Z,710.00
2018-01-22T03:00:56.042Z,710.23
2018-01-22T03:01:56.506Z,710.44
2018-01-22T03:02:56.973Z,710.43
2018-01-22T03:03:57.437Z,710.35
2018-01-22T03:04:57.903Z,710.12
2018-01-22T03:05:58.367Z,710.31
2018-01-22T03:06:58.834Z,710.19
2018-01-22T03:07:59.298Z,710.30
2018-01-22T03:08:59.763Z,710.72
2018-01-22T03:10:00.229Z,710.64
2018-01-22T03:11:00.700Z,710.29
2018-01-22T03:12:01.161Z,710.46
2018-01-22T03:13:01.626Z,710.54
2018-01-22T03:14:02.090Z,710.54
2018-01-22T03:15:02.557Z,710.48
2018-01-22T03:16:03.028Z,710.34
2018-01-22T03:17:03.491Z,710.73
2018-01-22T03:19:04.425Z,710.52
2018-01-22T03:20:04.890Z,710.28
2018-01-22T03:21:05.354Z,710.40
2018-01-22T03:22:05.816Z,710.53
2018-01-22T03:23:06.288Z,710.65
2018-01-22T03:24:06.752Z,710.61
2018-01-22T03:25:07.216Z,710.28
2018-01-22T03:26:07.682Z,710.28
2018-01-22T03:27:19.628Z,710.56
2018-01-22T03:28:08.614Z,710.64
2018-01-22T03:29:09.079Z,710.60
2018-01-22T03:30:09.545Z,710.22
2018-01-22T03:31:10.011Z,710.37
2018-01-22T03:32:10.476Z,710.15
2018-01-22T03:33:10.936Z,710.47
2018-01-22T03:34:11.408Z,710.22
2018-01-22T03:35:11.873Z,710.45
2018-01-22T03:36:12.342Z,710.41
2018-01-22T03:37:12.805Z,710.22
2018-01-22T03:38:13.276Z,710.84
2018-01-22T03:39:13.736Z,710.79
2018-01-22T03:40:14.199Z,710.54
2018-01-22T03:41:14.669Z,710.45
2018-01-22T03:42:15.136Z,710.22
2018-01-22T03:43:15.600Z,710.51
2018-01-22T03:44:16.067Z,710.27
2018-01-22T03:46:16.997Z,710.51
2018-01-22T03:47:17.458Z,710.99
2018-01-22T03:48:17.929Z,710.77
2018-01-22T03:50:18.862Z,710.64
2018-01-22T03:51:19.328Z,710.63
2018-01-22T03:52:19.794Z,710.80
2018-01-22T03:53:20.259Z,710.76
2018-01-22T03:54:20.724Z,710.62
2018-01-22T03:55:21.194Z,710.69
2018-01-22T03:56:21.655Z,710.81
2018-01-22T03:57:22.124Z,710.59
2018-01-22T03:58:22.582Z,710.60
2018-01-22T04:00:23.522Z,710.96
2018-01-22T04:02:24.446Z,710.75
2018-01-22T04:03:24.917Z,710.80
2018-01-22T04:04:25.384Z,710.72
2018-01-22T04:05:25.847Z,710.71
2018-01-22T04:06:26.317Z,710.66
2018-01-22T04:08:27.249Z,710.21
2018-01-22T04:10:28.179Z,710.70
2018-01-22T04:11:28.640Z,710.76
2018-01-22T04:12:40.694Z,710.22
2018-01-22T04:13:29.577Z,710.64
2018-01-22T04:14:30.044Z,710.73
2018-01-22T04:15:30.509Z,710.35
2018-01-22T04:16:30.977Z,710.20
2018-01-22T04:17:31.440Z,710.47
2018-01-22T04:18:31.902Z,710.90
2018-01-22T04:20:32.841Z,710.14
2018-01-22T04:21:33.303Z,710.71
2018-01-22T04:22:33.771Z,710.57
2018-01-22T04:23:34.241Z,710.94
2018-01-22T04:24:34.706Z,710.45
2018-01-22T04:25:35.166Z,710.84
2018-01-22T04:26:35.636Z,710.84
2018-01-22T04:27:36.105Z,710.87
2018-01-22T04:28:36.571Z,711.06
2018-01-22T04:29:37.037Z,710.68
2018-01-22T04:30:37.496Z,710.92
2018-01-22T04:31:37.970Z,710.76
2018-01-22T04:32:38.436Z,710.60
2018-01-22T04:33:38.900Z,710.79
2018-01-22T04:34:39.361Z,710.72
2018-01-22T04:35:39.831Z,711.02
2018-01-22T04:36:40.298Z,710.55
2018-01-22T04:37:40.765Z,710.62
2018-01-22T04:38:41.230Z,710.71
2018-01-22T04:39:41.698Z,711.04
2018-01-22T04:40:42.158Z,710.59
2018-01-22T04:42:43.095Z,710.62
2018-01-22T04:43:43.562Z,710.81
2018-01-22T04:44:44.029Z,710.90
2018-01-22T04:45:44.494Z,710.95
2018-01-22T04:46:44.961Z,710.89
2018-01-22T04:47:45.423Z,710.77
2018-01-22T04:48:45.889Z,710.57
2018-01-22T04:49:46.360Z,710.92
2018-01-22T04:50:46.826Z,710.63
2018-01-22T04:51:47.293Z,710.72
2018-01-22T04:52:47.764Z,710.60
2018-01-22T04:53:48.219Z,711.07
2018-01-22T04:54:48.690Z,710.62
2018-01-22T04:55:49.158Z,710.79
2018-01-22T04:56:49.625Z,711.00
2018-01-22T04:57:50.090Z,711.08
2018-01-22T04:58:50.558Z,710.76
2018-01-22T04:59:51.022Z,711.02
2018-01-22T05:00:51.485Z,711.13
2018-01-22T05:01:51.954Z,711.16
2018-01-22T05:02:52.422Z,711.10
2018-01-22T05:03:52.888Z,711.08
2018-01-22T05:04:53.355Z,710.82
2018-01-22T05:05:53.819Z,710.99
2018-01-22T05:06:54.287Z,710.79
2018-01-22T05:07:54.754Z,710.91
2018-01-22T05:08:55.219Z,710.97
2018-01-22T05:09:55.686Z,710.82
2018-01-22T05:10:56.151Z,710.82
2018-01-22T05:11:56.620Z,710.71
2018-01-22T05:12:57.079Z,711.01
2018-01-22T05:13:57.553Z,710.73
2018-01-22T05:14:58.020Z,711.03
2018-01-22T05:15:58.490Z,710.91
2018-01-22T05:16:58.951Z,710.74
2018-01-22T05:17:59.420Z,710.52
2018-01-22T05:18:59.885Z,710.52
2018-01-22T05:20:00.347Z,710.88
2018-01-22T05:21:00.816Z,711.17
2018-01-22T05:22:01.297Z,710.98
2018-01-22T05:23:01.751Z,710.66
2018-01-22T05:24:02.218Z,710.64
2018-01-22T05:25:02.689Z,710.62
2018-01-22T05:26:03.149Z,710.42
2018-01-22T05:27:03.620Z,710.47
2018-01-22T05:28:04.084Z,710.97
2018-01-22T05:29:04.546Z,710.82
2018-01-22T05:30:05.016Z,710.94
2018-01-22T05:31:05.483Z,710.75
2018-01-22T05:32:05.948Z,711.04
2018-01-22T05:33:06.414Z,710.84
2018-01-22T05:34:06.874Z,710.85
2018-01-22T05:35:07.349Z,711.21
2018-01-22T05:36:07.806Z,711.05
2018-01-22T05:37:08.281Z,710.86
2018-01-22T05:39:09.213Z,710.92
2018-01-22T05:40:09.679Z,711.12
2018-01-22T05:41:10.147Z,711.29
2018-01-22T05:42:10.611Z,711.06
2018-01-22T05:43:11.079Z,711.02
2018-01-22T05:45:12.013Z,711.12
2018-01-22T05:46:12.480Z,711.04
2018-01-22T05:47:12.940Z,710.97
2018-01-22T05:48:13.410Z,710.97
2018-01-22T05:49:13.877Z,711.17
2018-01-22T05:50:14.342Z,710.87
2018-01-22T05:51:14.808Z,711.09
2018-01-22T05:52:15.271Z,710.84
2018-01-22T05:53:15.752Z,710.81
2018-01-22T05:54:16.209Z,710.84
2018-01-22T05:55:16.676Z,711.37
2018-01-22T05:56:17.142Z,711.21
2018-01-22T05:57:17.609Z,711.31
2018-01-22T05:58:18.075Z,711.17
2018-01-22T05:59:18.541Z,711.33
2018-01-22T06:00:30.796Z,711.12
2018-01-22T06:01:19.474Z,710.72
2018-01-22T06:02:19.977Z,711.18
2018-01-22T06:03:20.407Z,711.05
2018-01-22T06:04:20.874Z,711.23
2018-01-22T06:05:32.775Z,710.98
2018-01-22T06:06:21.808Z,711.28
2018-01-22T06:07:22.269Z,711.04
2018-01-22T06:08:22.741Z,711.44
2018-01-22T06:09:23.208Z,710.96
2018-01-22T06:10:23.673Z,711.32
2018-01-22T06:11:24.144Z,711.15
2018-01-22T06:12:24.607Z,711.37
2018-01-22T06:13:25.074Z,711.18
2018-01-22T06:14:25.538Z,711.24
2018-01-22T06:15:37.792Z,711.07
2018-01-22T06:17:26.941Z,711.34
2018-01-22T06:18:27.407Z,711.16
2018-01-22T06:19:27.875Z,711.13
2018-01-22T06:20:28.342Z,711.09
2018-01-22T06:21:28.809Z,711.06
2018-01-22T06:22:29.274Z,711.40
2018-01-22T06:23:29.742Z,711.54
2018-01-22T06:24:30.208Z,711.64
2018-01-22T06:25:30.676Z,711.44
2018-01-22T06:26:31.143Z,711.46
2018-01-22T06:27:31.604Z,711.36
2018-01-22T06:28:32.076Z,710.92
2018-01-22T06:29:32.543Z,711.29
2018-01-22T06:31:33.472Z,710.97
2018-01-22T06:32:33.944Z,711.30
2018-01-22T06:33:34.412Z,711.38
2018-01-22T06:34:34.878Z,711.49
2018-01-22T06:35:35.344Z,711.61
2018-01-22T06:36:35.811Z,710.69
2018-01-22T06:37:36.279Z,711.32
2018-01-22T06:39:37.206Z,711.52
2018-01-22T06:40:37.679Z,711.76
2018-01-22T06:41:38.145Z,711.59
2018-01-22T06:42:38.611Z,711.35
2018-01-22T06:43:39.079Z,711.56
2018-01-22T06:44:39.546Z,711.36
2018-01-22T06:45:40.014Z,711.68
2018-01-22T06:46:40.476Z,711.64
2018-01-22T06:47:40.947Z,711.53
2018-01-22T06:49:41.882Z,711.67
2018-01-22T06:50:42.342Z,711.98
2018-01-22T06:51:54.800Z,711.86
2018-01-22T06:52:43.281Z,711.82
2018-01-22T06:54:44.214Z,711.87
2018-01-22T06:55:44.681Z,711.93
2018-01-22T06:56:45.145Z,711.77
2018-01-22T06:57:45.613Z,712.08
2018-01-22T06:58:46.078Z,711.98
2018-01-22T06:59:46.544Z,712.08
2018-01-22T07:00:47.011Z,712.02
2018-01-22T07:01:47.483Z,711.94
2018-01-22T07:02:47.954Z,711.87
2018-01-22T07:04:48.908Z,711.82
2018-01-22T07:06:49.820Z,711.77
2018-01-22T07:07:50.284Z,711.66
2018-01-22T07:08:50.754Z,711.76
2018-01-22T07:09:51.219Z,711.66
2018-01-22T07:10:51.685Z,711.66
2018-01-22T07:11:52.153Z,712.13
2018-01-22T07:13:53.087Z,712.06
2018-01-22T07:14:53.548Z,711.94
2018-01-22T07:15:54.022Z,711.91
2018-01-22T07:16:54.488Z,711.98
2018-01-22T07:17:54.956Z,711.99
2018-01-22T07:18:55.423Z,711.83
2018-01-22T07:19:55.889Z,712.16
2018-01-22T07:20:56.357Z,712.14
2018-01-22T07:21:56.820Z,711.73
2018-01-22T07:22:57.290Z,712.15
2018-01-22T07:23:57.758Z,711.99
2018-01-22T07:24:58.226Z,712.02
2018-01-22T07:25:58.693Z,711.64
2018-01-22T07:26:59.209Z,712.05
2018-01-22T07:27:59.626Z,712.02
2018-01-22T07:29:00.095Z,712.16
2018-01-22T07:31:01.027Z,711.99
2018-01-22T07:32:01.490Z,711.87
2018-01-22T07:33:01.962Z,712.38
2018-01-22T07:34:02.424Z,712.14
2018-01-22T07:35:02.898Z,712.26
2018-01-22T07:36:03.367Z,712.39
2018-01-22T07:37:03.833Z,712.40
2018-01-22T07:38:04.301Z,712.59
2018-01-22T07:39:04.768Z,712.33
2018-01-22T07:40:05.237Z,712.23
2018-01-22T07:41:05.694Z,712.25
2018-01-22T07:42:06.169Z,712.35
2018-01-22T07:43:06.636Z,712.06
2018-01-22T07:44:07.097Z,712.21
2018-01-22T07:45:07.573Z,712.39
2018-01-22T07:46:08.036Z,712.20
2018-01-22T07:47:08.502Z,712.32
2018-01-22T07:48:08.968Z,712.37
2018-01-22T07:49:09.438Z,712.31
2018-01-22T07:50:09.906Z,712.35
2018-01-22T07:51:10.372Z,712.57
2018-01-22T07:52:10.840Z,712.35
2018-01-22T07:54:11.775Z,712.74
2018-01-22T07:56:12.711Z,712.59
2018-01-22T07:57:13.178Z,712.58
2018-01-22T07:58:13.644Z,712.61
2018-01-22T07:59:14.110Z,712.51
2018-01-22T08:00:14.580Z,712.72
2018-01-22T08:01:15.049Z,712.64
2018-01-22T08:02:15.510Z,712.52
2018-01-22T08:03:15.985Z,712.46
2018-01-22T08:04:16.447Z,712.75
2018-01-22T08:06:17.383Z,712.51
2018-01-22T08:07:17.848Z,712.77
2018-01-22T08:08:18.317Z,712.37
2018-01-22T08:09:18.790Z,712.52
2018-01-22T08:10:19.254Z,712.57
2018-01-22T08:11:19.720Z,712.55
2018-01-22T08:12:20.187Z,712.81
2018-01-22T08:13:20.651Z,712.61
2018-01-22T08:14:21.122Z,712.73
2018-01-22T08:15:21.586Z,712.70
2018-01-22T08:16:22.060Z,712.73
2018-01-22T08:17:22.528Z,712.79
2018-01-22T08:18:22.996Z,712.57
2018-01-22T08:19:23.460Z,712.74
2018-01-22T08:20:23.929Z,712.89
2018-01-22T08:21:24.391Z,712.88
2018-01-22T08:22:24.865Z,712.91
2018-01-22T08:23:25.331Z,712.85
2018-01-22T08:24:25.802Z,712.96
2018-01-22T08:25:26.271Z,712.91
2018-01-22T08:26:26.738Z,712.92
2018-01-22T08:27:27.203Z,712.80
2018-01-22T08:28:27.674Z,712.82
2018-01-22T08:29:28.141Z,712.98
2018-01-22T08:30:28.607Z,713.01
2018-01-22T08:31:29.075Z,712.85
2018-01-22T08:32:29.544Z,713.06
2018-01-22T08:33:30.011Z,712.97
2018-01-22T08:34:30.479Z,712.99
2018-01-22T08:35:30.946Z,713.01
2018-01-22T08:36:31.415Z,713.01
2018-01-22T08:37:31.884Z,712.83
2018-01-22T08:38:32.349Z,712.81
2018-01-22T08:39:32.816Z,712.76
2018-01-22T08:40:33.283Z,712.85
2018-01-22T08:41:33.755Z,712.91
2018-01-22T08:42:34.215Z,712.94
2018-01-22T08:43:34.693Z,712.86
2018-01-22T08:44:35.157Z,712.92
2018-01-22T08:45:35.625Z,712.78
2018-01-22T08:46:36.096Z,712.58
2018-01-22T08:47:36.560Z,712.72
2018-01-22T08:48:37.030Z,713.00
2018-01-22T08:49:37.488Z,712.85
2018-01-22T08:50:37.964Z,712.81
2018-01-22T08:52:38.901Z,712.81
2018-01-22T08:53:39.361Z,712.66
2018-01-22T08:54:39.835Z,712.58
2018-01-22T08:55:40.301Z,712.79
2018-01-22T08:56:40.773Z,712.65
2018-01-22T08:58:41.711Z,712.59
2018-01-22T08:59:42.176Z,712.64
2018-01-22T09:00:42.642Z,712.78
2018-01-22T09:02:43.582Z,712.99
2018-01-22T09:03:44.040Z,713.06
2018-01-22T09:04:44.515Z,712.91
2018-01-22T09:05:44.982Z,713.04
2018-01-22T09:06:45.450Z,712.86
2018-01-22T09:07:45.920Z,712.84
2018-01-22T09:08:46.385Z,712.91
2018-01-22T09:10:47.324Z,712.94
2018-01-22T09:11:47.785Z,712.69
2018-01-22T09:12:48.257Z,712.82
2018-01-22T09:13:48.726Z,712.83
2018-01-22T09:14:49.193Z,712.99
2018-01-22T09:15:49.661Z,712.76
2018-01-22T09:16:50.131Z,712.72
2018-01-22T09:17:50.599Z,712.93
2018-01-22T09:18:51.063Z,712.71
2018-01-22T09:19:51.534Z,712.61
2018-01-22T09:20:52.005Z,712.50
2018-01-22T09:21:52.472Z,712.57
2018-01-22T09:23:53.406Z,712.61
2018-01-22T09:24:53.875Z,712.52
2018-01-22T09:25:54.348Z,712.77
2018-01-22T09:26:54.827Z,712.69
2018-01-22T09:27:55.333Z,712.80
2018-01-22T09:28:55.753Z,712.72
2018-01-22T09:29:56.220Z,712.57
2018-01-22T09:30:56.690Z,712.85
2018-01-22T09:31:57.150Z,712.72
2018-01-22T09:32:57.626Z,713.03
2018-01-22T09:33:58.097Z,712.79
2018-01-22T09:34:58.597Z,712.70
2018-01-22T09:36:59.497Z,713.09
2018-01-22T09:37:59.969Z,713.16
2018-01-22T09:39:00.437Z,713.08
2018-01-22T09:40:00.903Z,713.05
2018-01-22T09:41:01.369Z,713.27
2018-01-22T09:42:01.831Z,713.18
2018-01-22T09:43:02.307Z,713.21
2018-01-22T09:44:02.774Z,713.17
2018-01-22T09:45:03.243Z,713.22
2018-01-22T09:46:03.705Z,713.35
2018-01-22T09:47:04.182Z,713.16
2018-01-22T09:48:04.647Z,713.14
2018-01-22T09:49:05.120Z,712.97
2018-01-22T09:50:05.585Z,712.92
2018-01-22T09:51:06.052Z,713.19
2018-01-22T09:53:06.985Z,712.97
2018-01-22T09:54:07.458Z,713.39
2018-01-22T09:55:07.927Z,713.31
2018-01-22T09:56:08.396Z,713.33
2018-01-22T09:57:08.858Z,713.39
2018-01-22T09:58:20.964Z,713.37
2018-01-22T09:59:09.803Z,713.51
2018-01-22T10:00:10.269Z,713.42
2018-01-22T10:01:10.738Z,713.29
2018-01-22T10:02:11.204Z,713.42
2018-01-22T10:03:11.676Z,713.27
2018-01-22T10:04:12.137Z,713.39
2018-01-22T10:05:12.613Z,713.51
2018-01-22T10:06:13.084Z,713.41
2018-01-22T10:07:13.549Z,713.53
2018-01-22T10:08:14.019Z,713.26
2018-01-22T10:09:14.486Z,713.32
2018-01-22T10:10:14.955Z,713.46
2018-01-22T10:11:15.419Z,713.38
2018-01-22T10:12:15.894Z,713.37
2018-01-22T10:13:16.363Z,713.29
2018-01-22T10:14:16.830Z,713.35
2018-01-22T10:15:17.294Z,713.26
2018-01-22T10:16:17.768Z,713.37
2018-01-22T10:17:18.235Z,713.06
2018-01-22T10:18:18.705Z,712.96
2018-01-22T10:19:19.171Z,713.01
2018-01-22T10:20:19.640Z,713.08
2018-01-22T10:21:20.111Z,713.06
2018-01-22T10:22:20.573Z,712.89
2018-01-22T10:23:21.049Z,713.21
2018-01-22T10:24:21.515Z,713.13
2018-01-22T10:27:22.926Z,713.03
2018-01-22T10:28:23.392Z,712.75
2018-01-22T10:29:23.860Z,713.14
2018-01-22T10:30:24.330Z,713.18
2018-01-22T10:31:24.799Z,712.97
2018-01-22T10:32:25.268Z,713.11
2018-01-22T10:33:25.731Z,713.09
2018-01-22T10:34:26.208Z,712.81
2018-01-22T10:35:26.673Z,713.03
2018-01-22T10:36:27.143Z,713.00
2018-01-22T10:37:27.613Z,713.09
2018-01-22T10:38:28.080Z,713.17
2018-01-22T10:39:28.552Z,712.88
2018-01-22T10:40:29.018Z,713.22
2018-01-22T10:41:29.506Z,713.23
2018-01-22T10:42:29.955Z,713.19
2018-01-22T10:43:30.428Z,713.15
2018-01-22T10:44:30.890Z,713.27
2018-01-22T10:45:31.425Z,713.05
2018-01-22T10:46:31.831Z,713.02
2018-01-22T10:47:32.301Z,713.37
2018-01-22T10:48:32.769Z,713.13
2018-01-22T10:49:33.238Z,713.08
2018-01-22T10:50:33.709Z,713.12
2018-01-22T10:51:34.173Z,713.03
2018-01-22T10:52:34.646Z,712.94
2018-01-22T10:53:47.053Z,712.97
2018-01-22T10:54:35.587Z,712.97
2018-01-22T10:55:36.049Z,712.97
2018-01-22T10:56:36.526Z,713.17
2018-01-22T10:57:36.990Z,713.27
2018-01-22T10:58:37.459Z,713.15
2018-01-22T10:59:37.930Z,712.75
2018-01-22T11:00:38.400Z,713.04
2018-01-22T11:01:38.870Z,713.12
2018-01-22T11:02:39.332Z,712.95
2018-01-22T11:03:52.050Z,712.92
2018-01-22T11:06:41.212Z,713.18
2018-01-22T11:07:41.677Z,712.96
2018-01-22T11:11:43.555Z,712.81
2018-01-22T11:12:44.027Z,712.92
2018-01-22T11:13:44.548Z,713.25
2018-01-22T11:14:44.966Z,713.07
2018-01-22T11:15:45.435Z,712.76
2018-01-22T11:16:45.904Z,712.86
2018-01-22T11:17:46.373Z,712.95
2018-01-22T11:18:46.838Z,712.63
2018-01-22T11:19:47.313Z,712.70
2018-01-22T11:20:47.782Z,712.76
2018-01-22T11:21:48.252Z,712.94
2018-01-22T11:22:48.721Z,712.81
2018-01-22T11:24:49.658Z,712.50
2018-01-22T11:25:50.135Z,712.65
2018-01-22T11:26:50.599Z,712.62
2018-01-22T11:27:51.067Z,712.54
2018-01-22T11:28:51.540Z,712.37
2018-01-22T11:29:52.006Z,712.74
2018-01-22T11:30:52.475Z,712.52
2018-01-22T11:32:53.411Z,712.50
2018-01-22T11:33:53.884Z,712.79
2018-01-22T11:34:54.354Z,712.56
2018-01-22T11:35:54.822Z,712.65
2018-01-22T11:36:55.345Z,712.73
2018-01-22T11:37:55.763Z,712.75
2018-01-22T11:39:56.702Z,712.84
2018-01-22T11:40:57.166Z,712.86
2018-01-22T11:41:57.639Z,712.92
2018-01-22T11:42:58.109Z,712.84
2018-01-22T11:43:58.578Z,712.79
2018-01-22T11:44:59.046Z,712.86
2018-01-22T11:45:59.517Z,712.95
2018-01-22T11:48:00.458Z,712.76
2018-01-22T11:49:00.927Z,712.87
2018-01-22T11:50:01.397Z,712.79
2018-01-22T11:51:01.866Z,712.76
2018-01-22T11:52:02.335Z,712.78
2018-01-22T11:53:02.802Z,712.77
2018-01-22T11:54:03.275Z,712.76
2018-01-22T11:55:03.739Z,712.86
2018-01-22T11:56:04.213Z,712.85
2018-01-22T11:57:04.683Z,712.61
2018-01-22T11:58:05.152Z,712.55
2018-01-22T11:59:05.618Z,712.64
2018-01-22T12:00:06.094Z,712.50
2018-01-22T12:01:06.611Z,712.58
2018-01-22T12:02:07.032Z,712.56
2018-01-22T12:03:07.500Z,712.73
2018-01-22T12:04:07.970Z,712.50
2018-01-22T12:05:08.441Z,712.15
2018-01-22T12:06:08.912Z,712.18
2018-01-22T12:07:09.382Z,712.64
2018-01-22T12:08:09.845Z,712.77
2018-01-22T12:09:10.320Z,712.47
2018-01-22T12:10:10.790Z,712.66
2018-01-22T12:11:11.263Z,712.50
2018-01-22T12:12:11.733Z,712.83
2018-01-22T12:13:12.201Z,712.69
2018-01-22T12:14:12.665Z,712.47
2018-01-22T12:15:13.139Z,712.81
2018-01-22T12:16:13.609Z,712.42
2018-01-22T12:17:14.076Z,712.73
2018-01-22T12:18:14.548Z,712.70
2018-01-22T12:19:15.017Z,712.77
2018-01-22T12:20:15.482Z,713.02
2018-01-22T12:21:15.956Z,712.90
2018-01-22T12:22:16.427Z,712.95
2018-01-22T12:23:16.899Z,713.03
2018-01-22T12:24:17.363Z,712.71
2018-01-22T12:26:18.307Z,712.80
2018-01-22T12:27:18.777Z,712.60
2018-01-22T12:28:19.245Z,712.67
2018-01-22T12:29:19.714Z,712.79
2018-01-22T12:30:20.186Z,712.87
2018-01-22T12:31:20.651Z,712.85
2018-01-22T12:32:21.128Z,712.82
2018-01-22T12:33:21.590Z,712.81
2018-01-22T12:34:22.067Z,712.96
2018-01-22T12:35:22.536Z,712.93
2018-01-22T12:36:23.007Z,712.75
2018-01-22T12:37:23.474Z,712.79
2018-01-22T12:38:24.007Z,712.88
2018-01-22T12:40:24.891Z,712.75
2018-01-22T12:41:25.357Z,712.79
2018-01-22T12:42:25.822Z,712.81
2018-01-22T12:43:26.295Z,712.73
2018-01-22T12:45:27.237Z,712.82
2018-01-22T12:46:27.701Z,712.83
2018-01-22T12:47:28.170Z,712.77
2018-01-22T12:48:28.647Z,712.78
2018-01-22T12:49:29.166Z,712.79
2018-01-22T12:50:29.584Z,712.55
2018-01-22T12:51:30.054Z,712.60
2018-01-22T12:52:30.526Z,712.67
2018-01-22T12:54:31.460Z,712.68
2018-01-22T12:55:31.938Z,712.71
2018-01-22T12:56:32.609Z,712.64
2018-01-22T12:58:33.344Z,712.55
2018-01-22T12:59:33.815Z,712.39
2018-01-22T13:00:34.286Z,712.54
2018-01-22T13:01:34.755Z,712.53
2018-01-22T13:02:35.227Z,712.54
2018-01-22T13:03:35.697Z,712.66
2018-01-22T13:04:36.173Z,712.54
2018-01-22T13:05:36.653Z,712.62
2018-01-22T13:06:37.104Z,712.70
2018-01-22T13:07:37.576Z,712.58
2018-01-22T13:09:38.517Z,712.41
2018-01-22T13:10:38.983Z,712.46
2018-01-22T13:11:39.459Z,712.38
2018-01-22T13:12:39.930Z,712.19
2018-01-22T13:14:40.870Z,712.23
2018-01-22T13:15:41.342Z,712.29
2018-01-22T13:17:42.275Z,712.09
2018-01-22T13:18:42.751Z,712.43
2018-01-22T13:19:43.225Z,712.17
2018-01-22T13:20:43.690Z,712.17
2018-01-22T13:21:44.160Z,712.22
2018-01-22T13:22:44.630Z,712.32
2018-01-22T13:23:45.101Z,712.19
2018-01-22T13:24:45.567Z,712.05
2018-01-22T13:25:46.041Z,712.17
2018-01-22T13:26:46.510Z,712.01
2018-01-22T13:27:46.983Z,712.04
2018-01-22T13:28:47.451Z,711.99
2018-01-22T13:30:00.162Z,712.30
2018-01-22T13:30:48.393Z,712.03
2018-01-22T13:31:48.858Z,712.00
2018-01-22T13:32:49.335Z,711.67
2018-01-22T13:33:49.803Z,711.96
2018-01-22T13:34:50.275Z,711.83
2018-01-22T13:35:50.742Z,711.70
2018-01-22T13:36:51.217Z,711.87
2018-01-22T13:37:51.686Z,711.91
2018-01-22T13:38:52.153Z,711.66
2018-01-22T13:39:52.626Z,711.86
2018-01-22T13:40:53.103Z,711.78
2018-01-22T13:41:53.566Z,711.84
2018-01-22T13:42:54.031Z,711.95